Time;durP1;ratioP1;P1;durP2;ratioP2;P2;SDS_P1;SDS_P2;PMS_P1;PMS_P2;Temp;Humidity;BMP_temperature;BMP_pressure;BME280_temperature;BME280_humidity;BME280_pressure;Samples;Min_cycle;Max_cycle;Signal;HPM_P1;HPM_P2
2023/08/07 00:00:09;;;;;;;1.30;1.20;;;20.00;77.20;20.90;100354.00;;;;6271952;22;20152;-61
2023/08/07 00:02:35;;;;;;;1.33;1.27;;;20.00;77.20;20.90;100361.00;;;;6270981;22;20151;-61
2023/08/07 00:05:00;;;;;;;1.27;1.20;;;20.00;77.20;20.90;100359.00;;;;6270250;22;20155;-61
2023/08/07 00:07:26;;;;;;;1.10;1.10;;;20.00;77.00;20.90;100360.00;;;;6269622;22;20177;-61
2023/08/07 00:09:52;;;;;;;1.50;1.40;;;19.90;77.00;20.90;100362.00;;;;6270247;22;20219;-60
2023/08/07 00:12:17;;;;;;;1.40;1.30;;;19.90;77.00;20.80;100350.00;;;;6270069;22;20172;-61
2023/08/07 00:14:43;;;;;;;1.43;1.23;;;20.00;77.20;20.80;100353.00;;;;6270687;22;20145;-61
2023/08/07 00:17:09;;;;;;;1.50;1.40;;;19.90;77.00;20.80;100357.00;;;;6269990;22;20164;-61
2023/08/07 00:19:35;;;;;;;1.40;1.30;;;19.90;77.00;20.80;100363.00;;;;6270477;22;20147;-61
2023/08/07 00:22:00;;;;;;;1.60;1.50;;;19.90;77.10;20.80;100366.00;;;;6270378;22;20416;-60
2023/08/07 00:24:26;;;;;;;1.40;1.30;;;19.90;77.00;20.80;100366.00;;;;6270639;22;20202;-60
2023/08/07 00:26:52;;;;;;;1.60;1.50;;;19.90;77.80;20.80;100370.00;;;;6270669;22;20156;-61
2023/08/07 00:29:17;;;;;;;1.37;1.30;;;19.90;77.00;20.80;100364.00;;;;6270623;22;20173;-60
2023/08/07 00:31:43;;;;;;;1.27;1.27;;;19.90;76.90;20.80;100366.00;;;;6270513;22;20169;-60
2023/08/07 00:34:09;;;;;;;1.30;1.20;;;19.90;76.90;20.80;100370.00;;;;6270404;22;20145;-60
2023/08/07 00:36:35;;;;;;;1.30;1.20;;;19.90;76.90;20.80;100372.00;;;;6270486;22;20149;-60
2023/08/07 00:39:03;;;;;;;2.07;1.50;;;19.90;77.00;20.80;100364.00;;;;6270794;22;20318;-60
2023/08/07 00:41:29;;;;;;;1.40;1.30;;;19.80;76.90;20.70;100375.00;;;;6269115;22;20176;-60
2023/08/07 00:43:55;;;;;;;1.70;1.60;;;19.90;77.10;20.80;100371.00;;;;6269199;22;20149;-60
2023/08/07 00:46:20;;;;;;;2.03;1.60;;;19.90;77.00;20.80;100383.00;;;;6270147;22;20225;-61
2023/08/07 00:48:46;;;;;;;1.40;1.30;;;19.90;76.90;20.70;100375.00;;;;6268963;22;20179;-61
2023/08/07 00:51:12;;;;;;;1.77;1.50;;;19.90;76.90;20.70;100372.00;;;;6243003;22;20617;-61
2023/08/07 00:53:39;;;;;;;1.50;1.40;;;19.90;76.90;20.70;100379.00;;;;6218450;22;20148;-61
2023/08/07 00:56:04;;;;;;;1.50;1.40;;;19.80;76.80;20.70;100390.00;;;;6270686;22;20145;-61
2023/08/07 00:58:30;;;;;;;1.53;1.43;;;19.80;76.80;20.70;100380.00;;;;6269352;22;20152;-61
2023/08/07 01:00:56;;;;;;;1.40;1.30;;;19.80;76.90;20.70;100386.00;;;;6219209;22;20306;-61
2023/08/07 01:03:22;;;;;;;1.60;1.50;;;19.80;76.80;20.70;100377.00;;;;6270852;22;20211;-61
2023/08/07 01:05:47;;;;;;;1.40;1.30;;;19.80;76.70;20.70;100387.00;;;;6270951;22;20175;-61
2023/08/07 01:08:13;;;;;;;1.40;1.30;;;19.80;76.80;20.70;100387.00;;;;6272147;22;20621;-61
2023/08/07 01:11:08;;;;;;;1.70;1.60;;;19.80;76.70;20.70;100375.00;;;;6271061;22;20164;-61
2023/08/07 01:13:49;;;;;;;1.40;1.30;;;19.80;76.70;20.60;100383.00;;;;6224445;22;20133;-61
2023/08/07 01:16:29;;;;;;;1.60;1.40;;;19.80;76.80;20.60;100392.00;;;;6271699;22;20147;-61
2023/08/07 01:18:56;;;;;;;1.33;1.23;;;19.80;76.80;20.60;100390.00;;;;6248081;22;20727;-61
2023/08/07 01:21:22;;;;;;;1.40;1.30;;;19.80;77.00;20.60;100388.00;;;;6270584;22;20175;-61
2023/08/07 01:23:48;;;;;;;1.37;1.27;;;19.80;76.80;20.60;100389.00;;;;6272271;22;20724;-61
2023/08/07 01:26:15;;;;;;;1.50;1.40;;;19.80;76.80;20.60;100366.00;;;;6272048;22;20178;-61
2023/08/07 01:29:04;;;;;;;1.57;1.47;;;19.70;76.90;20.60;100379.00;;;;6220488;22;20176;-61
2023/08/07 01:31:29;;;;;;;1.50;1.40;;;19.70;77.10;20.30;100379.00;;;;6227614;22;20168;-60
2023/08/07 01:34:03;;;;;;;1.83;1.67;;;19.70;76.80;20.50;100389.00;;;;6272509;22;20534;-60
2023/08/07 01:36:29;;;;;;;1.60;1.50;;;19.70;76.90;20.50;100391.00;;;;6270564;22;20213;-61
2023/08/07 01:38:57;;;;;;;1.50;1.40;;;19.70;76.90;20.50;100381.00;;;;6245538;22;20179;-61
2023/08/07 01:41:23;;;;;;;0.90;0.90;;;19.70;76.80;20.50;100364.00;;;;6270993;22;20202;-60
2023/08/07 01:43:49;;;;;;;1.50;1.40;;;19.70;76.80;20.50;100386.00;;;;6221156;22;20240;-61
2023/08/07 01:46:14;;;;;;;1.50;1.40;;;19.70;76.80;20.50;100398.00;;;;6270097;22;20180;-61
2023/08/07 01:48:40;;;;;;;1.60;1.50;;;19.70;76.70;20.50;100394.00;;;;6271739;22;20196;-61
2023/08/07 01:51:06;;;;;;;1.60;1.50;;;19.70;76.60;20.50;100399.00;;;;6271828;22;20632;-61
2023/08/07 01:53:32;;;;;;;1.57;1.47;;;19.70;76.70;20.50;100407.00;;;;6272058;22;20145;-60
2023/08/07 01:55:57;;;;;;;1.73;1.40;;;19.70;76.70;20.50;100409.00;;;;6271740;22;20149;-60
2023/08/07 01:58:23;;;;;;;1.50;1.40;;;19.70;77.50;20.50;100399.00;;;;6272027;22;20168;-61
2023/08/07 02:00:49;;;;;;;1.47;1.37;;;19.70;76.70;20.50;100411.00;;;;6269903;22;20194;-61
2023/08/07 02:03:15;;;;;;;1.37;1.27;;;19.70;76.70;20.50;100415.00;;;;6272122;22;20176;-60
2023/08/07 02:05:41;;;;;;;1.53;1.43;;;19.60;76.60;20.40;100415.00;;;;6271936;22;20155;-59
2023/08/07 02:08:06;;;;;;;1.47;1.20;;;19.60;76.70;20.40;100419.00;;;;6271509;22;20145;-61
2023/08/07 02:10:32;;;;;;;1.40;1.30;;;19.60;76.70;20.40;100411.00;;;;6271838;22;20165;-60
2023/08/07 02:12:59;;;;;;;1.60;1.50;;;19.60;76.70;20.40;100421.00;;;;6271316;22;20149;-60
2023/08/07 02:15:24;;;;;;;1.60;1.50;;;19.60;76.60;20.50;100408.00;;;;6271762;22;20145;-60
2023/08/07 02:17:50;;;;;;;1.83;1.50;;;19.60;76.60;20.50;100414.00;;;;6271281;22;20157;-60
2023/08/07 02:20:16;;;;;;;1.47;1.37;;;19.60;76.50;20.50;100412.00;;;;6271005;22;20157;-60
2023/08/07 02:22:42;;;;;;;1.30;1.20;;;19.60;76.40;20.50;100412.00;;;;6271471;22;20155;-60
2023/08/07 02:25:08;;;;;;;1.33;1.23;;;19.60;76.40;20.50;100412.00;;;;6269932;22;20158;-60
2023/08/07 02:27:34;;;;;;;1.60;1.50;;;19.60;76.40;20.50;100424.00;;;;6271652;22;20151;-60
2023/08/07 02:29:59;;;;;;;1.60;1.50;;;19.60;76.40;20.40;100413.00;;;;6269602;22;20187;-61
2023/08/07 02:32:25;;;;;;;1.20;1.20;;;19.60;76.50;20.40;100405.00;;;;6271244;22;20244;-61
2023/08/07 02:34:51;;;;;;;1.20;1.13;;;19.60;76.60;20.40;100422.00;;;;6271429;22;20149;-61
2023/08/07 02:37:17;;;;;;;1.50;1.40;;;19.60;76.40;20.20;100423.00;;;;6271136;22;20151;-60
2023/08/07 02:39:42;;;;;;;1.60;1.50;;;19.60;76.40;20.40;100413.00;;;;6271631;22;20159;-61
2023/08/07 02:42:08;;;;;;;1.80;1.40;;;19.50;76.40;20.40;100422.00;;;;6271615;22;20513;-60
2023/08/07 02:44:34;;;;;;;1.50;1.40;;;19.60;76.40;20.40;100420.00;;;;6271660;22;20201;-60
2023/08/07 02:46:59;;;;;;;1.13;1.13;;;19.60;76.30;20.40;100413.00;;;;6271327;22;20165;-61
2023/08/07 02:49:25;;;;;;;1.47;1.37;;;19.60;76.30;20.40;100415.00;;;;6271297;22;20173;-60
2023/08/07 02:51:51;;;;;;;1.97;1.40;;;19.50;76.30;20.40;100413.00;;;;6271431;22;20173;-61
2023/08/07 02:54:16;;;;;;;1.50;1.40;;;19.50;76.40;20.40;100412.00;;;;6271606;22;20153;-61
2023/08/07 02:56:42;;;;;;;1.57;1.47;;;19.50;76.50;20.40;100422.00;;;;6271357;22;20147;-61
2023/08/07 02:59:08;;;;;;;1.40;1.30;;;19.50;76.30;20.40;100419.00;;;;6271772;22;20150;-61
2023/08/07 03:01:34;;;;;;;1.50;1.40;;;19.50;76.30;20.40;100421.00;;;;6271928;22;20168;-61
2023/08/07 03:03:59;;;;;;;1.50;1.40;;;19.50;76.30;20.40;100422.00;;;;6271189;22;20667;-61
2023/08/07 03:06:25;;;;;;;1.50;1.40;;;19.50;76.30;20.40;100428.00;;;;6272438;22;20780;-61
2023/08/07 03:08:51;;;;;;;1.33;1.27;;;19.50;76.30;20.40;100413.00;;;;6272849;22;20512;-61
2023/08/07 03:11:16;;;;;;;1.40;1.30;;;19.50;76.30;20.40;100422.00;;;;6272751;22;20195;-61
2023/08/07 03:13:44;;;;;;;1.60;1.50;;;19.50;76.20;20.40;100423.00;;;;6272750;22;20148;-61
2023/08/07 03:16:09;;;;;;;1.80;1.30;;;19.50;76.20;20.40;100416.00;;;;6270780;22;20528;-61
2023/08/07 03:18:35;;;;;;;1.40;1.30;;;19.50;76.30;20.30;100412.00;;;;6272723;22;20206;-62
2023/08/07 03:21:01;;;;;;;1.43;1.33;;;19.40;76.20;20.30;100424.00;;;;6272294;22;20173;-61
2023/08/07 03:23:27;;;;;;;1.80;1.50;;;19.40;76.20;20.30;100427.00;;;;6272832;22;20145;-61
2023/08/07 03:26:10;;;;;;;1.53;1.43;;;19.40;76.30;20.30;100415.00;;;;6272301;22;20232;-61
2023/08/07 03:28:36;;;;;;;2.00;1.50;;;19.40;76.30;20.30;100421.00;;;;6271236;22;20165;-61
2023/08/07 03:31:02;;;;;;;1.73;1.50;;;19.40;76.30;20.30;100398.00;;;;6271713;22;20274;-60
2023/08/07 03:33:28;;;;;;;1.53;1.43;;;19.40;76.20;20.30;100420.00;;;;6272173;22;20201;-56
2023/08/07 03:35:54;;;;;;;1.60;1.50;;;19.40;76.60;20.30;100410.00;;;;6268884;22;20603;-62
2023/08/07 03:38:19;;;;;;;2.33;1.50;;;19.40;76.60;20.20;100420.00;;;;6272271;22;20228;-63
2023/08/07 03:40:45;;;;;;;2.57;1.57;;;19.40;76.40;20.30;100436.00;;;;6273037;22;20167;-60
2023/08/07 03:43:11;;;;;;;3.73;1.60;;;19.40;76.40;20.30;100420.00;;;;6271316;22;20152;-61
2023/08/07 03:45:36;;;;;;;1.40;1.30;;;19.40;76.40;20.30;100423.00;;;;6271494;22;20149;-61
2023/08/07 03:48:02;;;;;;;2.87;1.70;;;19.40;76.50;20.30;100423.00;;;;6271745;22;20149;-62
2023/08/07 03:50:30;;;;;;;2.33;1.40;;;19.40;76.50;20.30;100429.00;;;;6271180;22;20166;-62
2023/08/07 03:52:56;;;;;;;2.30;1.70;;;19.40;76.30;20.30;100433.00;;;;6272702;22;20145;-62
2023/08/07 03:55:21;;;;;;;4.33;1.70;;;19.40;76.20;20.30;100445.00;;;;6272286;22;20154;-61
2023/08/07 03:57:47;;;;;;;1.87;1.50;;;19.40;77.20;20.30;100445.00;;;;6272177;22;20144;-62
2023/08/07 04:00:13;;;;;;;3.43;1.73;;;19.40;76.40;20.20;100448.00;;;;6272159;22;20145;-61
2023/08/07 04:02:40;;;;;;;3.63;1.70;;;19.40;76.40;20.20;100442.00;;;;6269268;22;20160;-62
2023/08/07 04:05:06;;;;;;;2.20;1.60;;;19.30;76.20;20.20;100432.00;;;;6271552;22;20152;-62
2023/08/07 04:07:31;;;;;;;2.20;1.30;;;19.40;76.40;20.20;100444.00;;;;6271283;22;20166;-61
2023/08/07 04:09:57;;;;;;;1.83;1.60;;;19.30;76.20;20.20;100452.00;;;;6271823;22;20179;-61
2023/08/07 04:12:23;;;;;;;2.40;1.90;;;19.40;76.20;20.20;100443.00;;;;6271707;22;20541;-62
2023/08/07 04:14:49;;;;;;;3.53;2.20;;;19.40;76.30;20.20;100451.00;;;;6271547;22;20207;-61
2023/08/07 04:17:14;;;;;;;2.13;1.83;;;19.40;76.30;20.20;100444.00;;;;6270818;22;20160;-62
2023/08/07 04:19:40;;;;;;;3.13;1.87;;;19.40;76.20;20.10;100452.00;;;;6271725;22;20148;-61
2023/08/07 04:22:06;;;;;;;3.07;2.10;;;19.30;76.10;20.20;100448.00;;;;6271708;22;20173;-61
2023/08/07 04:24:32;;;;;;;3.60;2.20;;;19.40;76.10;20.20;100449.00;;;;6272070;22;20265;-61
2023/08/07 04:26:57;;;;;;;6.40;2.07;;;19.40;76.10;20.20;100455.00;;;;6271437;22;20785;-61
2023/08/07 04:29:24;;;;;;;5.23;1.93;;;19.40;76.20;20.20;100454.00;;;;6271629;22;20694;-61
2023/08/07 04:31:50;;;;;;;3.13;1.90;;;19.30;76.10;20.20;100452.00;;;;6271287;22;20169;-60
2023/08/07 04:34:15;;;;;;;4.10;2.00;;;19.30;76.20;20.20;100454.00;;;;6271968;22;20145;-61
2023/08/07 04:36:41;;;;;;;3.57;2.10;;;19.30;76.20;20.20;100451.00;;;;6272488;22;20870;-61
2023/08/07 04:39:07;;;;;;;5.43;2.17;;;19.30;76.30;20.20;100455.00;;;;6275221;22;20151;-61
2023/08/07 04:41:33;;;;;;;3.83;2.07;;;19.30;76.20;20.20;100451.00;;;;6274983;22;20172;-61
2023/08/07 04:43:59;;;;;;;2.97;1.83;;;19.30;76.30;20.20;100454.00;;;;6275304;22;20206;-61
2023/08/07 04:46:24;;;;;;;2.87;1.80;;;19.30;76.20;20.20;100462.00;;;;6274613;22;20149;-61
2023/08/07 04:48:50;;;;;;;3.80;2.00;;;19.30;76.30;20.20;100462.00;;;;6275489;22;20555;-60
2023/08/07 04:51:16;;;;;;;3.70;2.03;;;19.30;76.40;20.20;100465.00;;;;6275654;22;20172;-61
2023/08/07 04:53:42;;;;;;;3.37;2.10;;;19.30;76.40;20.10;100463.00;;;;6273576;22;20147;-60
2023/08/07 04:56:07;;;;;;;2.73;2.00;;;19.30;76.50;20.10;100469.00;;;;6268194;22;20194;-61
2023/08/07 04:58:33;;;;;;;2.83;2.13;;;19.30;76.50;20.10;100464.00;;;;6273902;22;20184;-61
2023/08/07 05:01:00;;;;;;;2.23;1.87;;;19.30;76.50;20.10;100467.00;;;;6274497;22;20648;-62
2023/08/07 05:03:31;;;;;;;6.37;2.23;;;19.30;76.50;20.10;100470.00;;;;6263146;22;20191;-62
2023/08/07 05:06:00;;;;;;;4.43;1.93;;;19.20;76.50;20.10;100476.00;;;;6263132;22;20177;-60
2023/08/07 05:08:26;;;;;;;5.40;2.30;;;19.30;76.60;20.10;100468.00;;;;6273008;22;20207;-60
2023/08/07 05:10:52;;;;;;;4.47;2.07;;;19.20;76.50;20.10;100465.00;;;;6273638;22;20176;-62
2023/08/07 05:13:18;;;;;;;4.50;2.33;;;19.20;76.50;20.10;100458.00;;;;6274352;22;20145;-61
2023/08/07 05:15:44;;;;;;;3.50;2.20;;;19.30;76.60;20.10;100471.00;;;;6274084;22;20145;-61
2023/08/07 05:18:09;;;;;;;3.13;2.00;;;19.20;76.50;20.10;100461.00;;;;6270469;22;20166;-61
2023/08/07 05:20:35;;;;;;;4.10;2.10;;;19.20;76.50;20.10;100468.00;;;;6274011;22;20616;-61
2023/08/07 05:23:01;;;;;;;3.70;2.20;;;19.30;76.50;20.10;100468.00;;;;6276915;22;20141;-62
2023/08/07 05:25:26;;;;;;;3.00;2.07;;;19.20;76.40;20.10;100474.00;;;;6273542;22;20152;-61
2023/08/07 05:27:52;;;;;;;4.20;2.10;;;19.20;76.40;20.10;100467.00;;;;6273373;22;20154;-62
2023/08/07 05:30:18;;;;;;;2.77;2.07;;;19.20;76.50;20.10;100448.00;;;;6273977;22;20171;-61
2023/08/07 05:32:44;;;;;;;3.70;1.90;;;19.20;76.50;20.10;100465.00;;;;6275050;22;20145;-61
2023/08/07 05:35:10;;;;;;;2.37;2.17;;;19.20;76.40;20.10;100474.00;;;;6275917;22;20685;-61
2023/08/07 05:37:36;;;;;;;3.07;2.23;;;19.20;76.40;20.10;100477.00;;;;6274248;22;20240;-61
2023/08/07 05:40:02;;;;;;;3.13;2.10;;;19.20;76.40;20.10;100476.00;;;;6273712;22;20156;-61
2023/08/07 05:42:27;;;;;;;2.67;2.20;;;19.20;76.40;20.10;100484.00;;;;6273926;22;20869;-61
2023/08/07 05:44:53;;;;;;;2.50;2.13;;;19.20;76.30;20.10;100479.00;;;;6274121;22;20154;-60
2023/08/07 05:47:19;;;;;;;3.57;2.00;;;19.20;76.20;20.10;100480.00;;;;6269235;22;20600;-61
2023/08/07 05:49:45;;;;;;;2.20;2.00;;;19.20;76.20;20.00;100479.00;;;;6270665;22;20176;-61
2023/08/07 05:52:10;;;;;;;2.43;2.10;;;19.20;76.40;20.10;100482.00;;;;6270175;22;20172;-61
2023/08/07 05:54:36;;;;;;;3.53;2.30;;;19.20;76.30;20.00;100482.00;;;;6267688;22;20150;-61
2023/08/07 05:57:02;;;;;;;2.33;2.10;;;19.20;76.20;20.00;100486.00;;;;6266197;22;20488;-61
2023/08/07 05:59:28;;;;;;;3.60;2.40;;;19.20;76.40;20.00;100480.00;;;;6270940;22;20163;-61
2023/08/07 06:01:54;;;;;;;2.93;2.30;;;19.20;76.30;20.00;100479.00;;;;6270471;22;20508;-61
2023/08/07 06:04:21;;;;;;;3.50;2.30;;;19.10;76.30;20.00;100476.00;;;;6271105;22;20145;-61
2023/08/07 06:06:47;;;;;;;2.70;2.17;;;19.10;76.30;20.00;100483.00;;;;6269977;22;20151;-61
2023/08/07 06:09:15;;;;;;;4.40;2.10;;;19.10;76.40;20.00;100479.00;;;;6271581;22;20272;-61
2023/08/07 06:11:41;;;;;;;4.03;2.30;;;19.10;76.30;20.00;100476.00;;;;6272548;22;20198;-61
2023/08/07 06:14:07;;;;;;;3.47;2.30;;;19.10;76.40;20.00;100489.00;;;;6272199;22;20150;-61
2023/08/07 06:16:32;;;;;;;3.17;2.20;;;19.10;76.40;20.00;100485.00;;;;6269952;22;20508;-60
2023/08/07 06:18:58;;;;;;;3.00;2.20;;;19.10;76.40;20.00;100484.00;;;;6272756;22;20467;-61
2023/08/07 06:21:24;;;;;;;3.40;2.43;;;19.20;76.50;20.00;100486.00;;;;6272497;22;20544;-61
2023/08/07 06:23:49;;;;;;;2.53;2.13;;;19.10;76.40;20.00;100487.00;;;;6273002;22;20652;-61
2023/08/07 06:26:15;;;;;;;3.20;2.27;;;19.10;76.40;20.00;100491.00;;;;6271765;22;20595;-60
2023/08/07 06:28:42;;;;;;;2.63;2.10;;;19.00;76.20;20.00;100505.00;;;;6272534;22;20183;-61
2023/08/07 06:31:09;;;;;;;2.73;2.10;;;19.10;76.40;20.00;100506.00;;;;6272864;22;20167;-61
2023/08/07 06:33:35;;;;;;;2.97;2.10;;;19.10;76.40;20.00;100510.00;;;;6273678;22;20157;-61
2023/08/07 06:36:02;;;;;;;3.10;2.47;;;19.10;76.40;20.00;100507.00;;;;6273003;22;20617;-61
2023/08/07 06:38:28;;;;;;;3.00;2.27;;;19.00;76.30;20.00;100504.00;;;;6272644;22;20155;-61
2023/08/07 06:40:54;;;;;;;2.47;2.00;;;19.00;76.30;20.00;100516.00;;;;6245448;22;20172;-62
2023/08/07 06:43:19;;;;;;;3.07;2.30;;;19.00;76.30;20.00;100517.00;;;;6272649;22;20149;-62
2023/08/07 06:45:53;;;;;;;2.20;2.00;;;19.00;76.30;20.00;100506.00;;;;6272303;22;20150;-61
2023/08/07 06:48:19;;;;;;;3.83;2.30;;;19.00;76.30;20.00;100530.00;;;;6270650;22;20149;-61
2023/08/07 06:50:50;;;;;;;3.20;2.40;;;19.00;76.30;19.90;100532.00;;;;6272235;22;20253;-61
2023/08/07 06:53:16;;;;;;;5.00;2.43;;;19.00;76.30;19.90;100522.00;;;;6271643;22;20133;-60
2023/08/07 06:55:42;;;;;;;2.60;2.40;;;19.00;76.20;19.90;100513.00;;;;6273025;22;20150;-61
2023/08/07 06:58:08;;;;;;;2.30;2.10;;;19.00;76.30;19.90;100520.00;;;;6272921;22;20228;-61
2023/08/07 07:00:37;;;;;;;2.50;2.30;;;19.00;76.20;19.90;100536.00;;;;6272481;22;20173;-62
2023/08/07 07:03:03;;;;;;;3.07;2.00;;;19.00;76.30;19.90;100535.00;;;;6272837;22;20664;-60
2023/08/07 07:05:30;;;;;;;3.13;2.33;;;19.00;76.30;19.90;100533.00;;;;6273004;22;20173;-61
2023/08/07 07:07:56;;;;;;;3.53;2.40;;;19.00;76.30;19.90;100535.00;;;;6272835;22;20143;-62
2023/08/07 07:10:22;;;;;;;2.73;2.27;;;19.00;76.20;19.90;100533.00;;;;6273767;22;20177;-60
2023/08/07 07:12:48;;;;;;;3.10;2.60;;;19.00;76.30;19.90;100553.00;;;;6271968;22;20223;-60
2023/08/07 07:15:13;;;;;;;2.73;2.20;;;19.00;77.00;19.80;100551.00;;;;6272757;22;20141;-63
2023/08/07 07:17:39;;;;;;;3.13;2.40;;;19.00;76.60;19.90;100548.00;;;;6272515;22;20165;-64
2023/08/07 07:20:05;;;;;;;2.57;2.20;;;19.00;76.50;19.90;100565.00;;;;6271223;22;20149;-63
2023/08/07 07:22:31;;;;;;;2.63;2.30;;;19.00;76.60;19.80;100564.00;;;;6272720;22;20203;-63
2023/08/07 07:24:57;;;;;;;2.80;2.30;;;19.00;76.50;19.90;100562.00;;;;6272467;22;20146;-61
2023/08/07 07:27:25;;;;;;;4.20;2.50;;;19.00;76.60;19.90;100568.00;;;;6272358;22;20696;-58
2023/08/07 07:29:50;;;;;;;3.33;2.30;;;18.90;76.80;19.80;100565.00;;;;6271835;22;20246;-62
2023/08/07 07:32:16;;;;;;;3.40;2.40;;;19.00;76.80;19.80;100557.00;;;;6274238;22;20613;-61
2023/08/07 07:34:42;;;;;;;3.97;2.00;;;19.00;76.80;19.80;100563.00;;;;6272328;22;20146;-61
2023/08/07 07:37:08;;;;;;;3.53;2.43;;;19.00;76.80;19.90;100564.00;;;;6270759;22;20149;-62
2023/08/07 07:39:34;;;;;;;2.43;2.03;;;19.00;76.70;19.80;100586.00;;;;6272553;22;20225;-61
2023/08/07 07:42:00;;;;;;;2.43;2.03;;;19.00;76.70;19.80;100583.00;;;;6272950;22;20252;-62
2023/08/07 07:44:26;;;;;;;3.20;2.27;;;19.00;76.80;19.80;100582.00;;;;6272955;22;20176;-64
2023/08/07 07:46:52;;;;;;;2.50;2.17;;;19.00;76.80;19.80;100599.00;;;;6272701;22;20719;-63
2023/08/07 07:49:18;;;;;;;3.20;2.27;;;19.00;76.90;19.80;100592.00;;;;6272360;22;20195;-64
2023/08/07 07:51:44;;;;;;;3.40;2.20;;;19.00;77.00;19.80;100596.00;;;;6272302;22;20164;-63
2023/08/07 07:54:10;;;;;;;2.73;2.30;;;19.00;77.20;19.80;100592.00;;;;6272203;22;20237;-63
2023/08/07 07:56:36;;;;;;;2.20;2.00;;;19.00;77.20;19.80;100601.00;;;;6271928;22;20168;-63
2023/08/07 07:59:02;;;;;;;2.30;2.10;;;19.00;77.20;19.80;100598.00;;;;6272213;22;20762;-63
2023/08/07 08:01:28;;;;;;;3.03;2.20;;;18.90;77.20;19.80;100606.00;;;;6272133;22;20169;-62
2023/08/07 08:03:54;;;;;;;2.50;2.30;;;19.00;77.60;19.80;100619.00;;;;6272724;22;20219;-62
2023/08/07 08:06:19;;;;;;;3.50;2.23;;;19.00;77.70;19.80;100609.00;;;;6271989;22;20598;-62
2023/08/07 08:08:45;;;;;;;2.30;2.10;;;19.00;77.70;19.80;100622.00;;;;6245081;22;20178;-62
2023/08/07 08:11:11;;;;;;;2.43;2.20;;;19.00;77.80;19.80;100625.00;;;;6271618;22;20241;-63
2023/08/07 08:13:39;;;;;;;3.27;2.53;;;19.00;77.90;19.80;100629.00;;;;6272114;22;20149;-61
2023/08/07 08:16:05;;;;;;;4.13;2.50;;;19.00;78.20;19.80;100637.00;;;;6272798;22;20222;-62
2023/08/07 08:18:30;;;;;;;2.40;2.10;;;19.00;78.00;19.80;100642.00;;;;6271661;22;20171;-62
2023/08/07 08:20:56;;;;;;;3.03;2.37;;;19.00;78.20;19.80;100640.00;;;;6272113;22;20172;-62
2023/08/07 08:23:22;;;;;;;2.50;2.30;;;19.00;78.30;19.80;100650.00;;;;6272133;22;20151;-62
2023/08/07 08:25:48;;;;;;;2.80;2.50;;;19.00;78.70;19.80;100651.00;;;;6270244;22;20236;-63
2023/08/07 08:28:14;;;;;;;2.60;2.13;;;19.00;78.70;19.80;100644.00;;;;6272162;22;20228;-62
2023/08/07 08:30:41;;;;;;;3.43;2.70;;;19.00;78.40;19.80;100658.00;;;;6272044;22;20652;-62
2023/08/07 08:33:09;;;;;;;2.67;2.30;;;19.00;78.40;19.80;100671.00;;;;6271998;22;20141;-63
2023/08/07 08:35:35;;;;;;;2.77;2.20;;;19.00;78.40;19.80;100677.00;;;;6271961;22;20833;-62
2023/08/07 08:38:01;;;;;;;2.67;2.27;;;18.90;78.10;19.70;100667.00;;;;6272082;22;20153;-62
2023/08/07 08:40:26;;;;;;;5.37;2.50;;;19.00;78.20;19.80;100671.00;;;;6271002;22;20156;-62
2023/08/07 08:42:54;;;;;;;5.83;2.80;;;18.90;78.40;19.80;100686.00;;;;6272289;22;20149;-62
2023/08/07 08:45:20;;;;;;;4.17;2.50;;;18.90;79.50;19.80;100698.00;;;;6245733;22;20241;-62
2023/08/07 08:47:46;;;;;;;6.30;2.10;;;18.80;79.10;19.70;100691.00;;;;6220186;22;20150;-60
2023/08/07 08:50:14;;;;;;;6.33;2.60;;;18.90;79.40;19.70;100701.00;;;;6222149;22;20184;-58
2023/08/07 08:52:44;;;;;;;5.00;2.27;;;18.90;79.60;19.70;100700.00;;;;6276255;22;20161;-59
2023/08/07 08:55:11;;;;;;;5.53;2.40;;;18.90;79.20;19.70;100694.00;;;;6274786;22;20520;-60
2023/08/07 08:57:37;;;;;;;3.83;2.23;;;18.90;79.80;19.70;100694.00;;;;6272261;22;20149;-59
2023/08/07 09:00:06;;;;;;;3.97;2.43;;;18.90;79.80;19.70;100705.00;;;;6269967;22;20149;-60
2023/08/07 09:02:33;;;;;;;3.73;2.30;;;18.90;79.80;19.70;100704.00;;;;6270513;22;20776;-59
2023/08/07 09:04:58;;;;;;;5.20;2.40;;;18.90;79.80;19.70;100685.00;;;;6272308;22;20153;-61
2023/08/07 09:07:24;;;;;;;9.57;3.23;;;18.90;79.90;19.70;100701.00;;;;6272225;22;20177;-62
2023/08/07 09:09:50;;;;;;;8.40;2.30;;;18.90;79.80;19.60;100703.00;;;;6219879;22;20193;-61
2023/08/07 09:12:20;;;;;;;6.97;2.50;;;18.90;79.70;19.60;100697.00;;;;6271316;22;20664;-55
2023/08/07 09:14:52;;;;;;;4.83;2.40;;;18.90;79.90;19.60;100696.00;;;;6271977;22;20142;-54
2023/08/07 09:17:18;;;;;;;5.10;2.40;;;18.90;79.80;19.60;100688.00;;;;6244960;22;20164;-56
2023/08/07 09:19:43;;;;;;;5.73;2.63;;;18.90;79.50;19.60;100686.00;;;;6270443;22;20166;-55
2023/08/07 09:22:09;;;;;;;4.20;2.50;;;18.90;79.80;19.60;100696.00;;;;6245144;22;20231;-54
2023/08/07 09:24:35;;;;;;;5.13;2.40;;;18.90;79.80;19.60;100700.00;;;;6221818;22;20219;-55
2023/08/07 09:27:01;;;;;;;4.03;2.40;;;18.90;79.80;19.60;100708.00;;;;6271641;22;20202;-55
2023/08/07 09:29:26;;;;;;;5.57;2.40;;;18.90;79.60;19.60;100712.00;;;;6271651;22;20805;-54
2023/08/07 09:31:54;;;;;;;4.07;2.53;;;18.90;79.60;19.60;100713.00;;;;6272285;22;20165;-54
2023/08/07 09:34:20;;;;;;;4.27;2.40;;;18.90;79.70;19.60;100721.00;;;;6272386;22;20176;-56
2023/08/07 09:36:46;;;;;;;2.73;2.20;;;18.90;79.50;19.60;100723.00;;;;6273493;22;20145;-55
2023/08/07 09:39:11;;;;;;;4.87;2.20;;;18.90;79.50;19.60;100718.00;;;;6273740;22;20211;-55
2023/08/07 09:41:37;;;;;;;5.00;2.37;;;18.90;79.50;19.60;100728.00;;;;6273519;22;20266;-55
2023/08/07 09:44:10;;;;;;;3.50;2.43;;;18.90;79.40;19.60;100725.00;;;;6273364;22;20210;-55
2023/08/07 09:46:43;;;;;;;2.33;2.13;;;18.90;79.30;19.60;100730.00;;;;6273234;22;20573;-56
2023/08/07 09:49:09;;;;;;;3.30;2.20;;;18.90;80.00;19.60;100739.00;;;;6272101;22;20172;-55
2023/08/07 09:51:45;;;;;;;4.00;2.20;;;18.90;79.20;19.60;100726.00;;;;6273460;22;20745;-55
2023/08/07 09:54:11;;;;;;;4.10;2.40;;;18.90;79.20;19.60;100737.00;;;;6273816;22;20147;-55
2023/08/07 09:56:38;;;;;;;3.77;2.30;;;18.90;79.10;19.60;100730.00;;;;6270894;22;20167;-56
2023/08/07 09:59:04;;;;;;;5.87;2.30;;;18.80;79.00;19.60;100728.00;;;;6272220;22;20150;-56
2023/08/07 10:01:30;;;;;;;4.73;2.30;;;18.90;79.00;19.60;100736.00;;;;6272902;22;20175;-55
2023/08/07 10:03:57;;;;;;;3.13;2.20;;;18.90;78.80;19.60;100723.00;;;;6272973;22;20149;-55
2023/08/07 10:06:23;;;;;;;3.87;2.03;;;18.90;78.90;19.60;100729.00;;;;6246067;22;20602;-56
2023/08/07 10:08:48;;;;;;;4.30;2.10;;;18.90;78.70;19.60;100728.00;;;;6245756;22;20199;-55
2023/08/07 10:11:14;;;;;;;4.33;2.40;;;18.90;78.80;19.60;100724.00;;;;6245284;22;20164;-54
2023/08/07 10:13:41;;;;;;;4.87;2.37;;;18.90;79.20;19.60;100736.00;;;;6271880;22;20149;-54
2023/08/07 10:16:07;;;;;;;3.93;2.10;;;19.00;79.40;19.60;100748.00;;;;6272746;22;20141;-54
2023/08/07 10:18:33;;;;;;;2.40;2.03;;;19.00;79.40;19.70;100753.00;;;;6272766;22;20180;-53
2023/08/07 10:21:00;;;;;;;5.00;2.60;;;19.00;79.70;19.60;100738.00;;;;6272821;22;20169;-55
2023/08/07 10:23:26;;;;;;;5.17;2.23;;;19.00;79.90;19.70;100756.00;;;;6272625;22;20145;-55
2023/08/07 10:25:52;;;;;;;3.57;2.20;;;19.00;80.00;19.70;100759.00;;;;6273006;22;20156;-56
2023/08/07 10:28:18;;;;;;;3.40;2.30;;;19.00;80.00;19.70;100737.00;;;;6271149;22;20194;-56
2023/08/07 10:30:44;;;;;;;3.93;2.20;;;19.00;79.90;19.70;100750.00;;;;6245464;22;20247;-56
2023/08/07 10:33:10;;;;;;;3.40;2.50;;;19.00;80.00;19.70;100755.00;;;;6246470;22;20152;-57
2023/08/07 10:35:36;;;;;;;4.10;2.20;;;19.00;80.00;19.70;100760.00;;;;6245446;22;20145;-55
2023/08/07 10:38:09;;;;;;;3.83;2.27;;;19.10;80.10;19.70;100750.00;;;;6272607;22;20237;-54
2023/08/07 10:41:14;;;;;;;3.47;2.40;;;19.00;80.00;19.70;100753.00;;;;6271991;22;20695;-56
2023/08/07 10:43:43;;;;;;;2.20;2.00;;;19.00;80.00;19.70;100747.00;;;;6267128;22;20160;-55